AirNav   Pilot Hours Calculator
 
 1119 users online  

FD60 Calhoun Sheriff's Heliport
Altha, Florida, USA

GOING TO ALTHA?


FAA INFORMATION EFFECTIVE 02 JANUARY 2020

Location

FAA Identifier: FD60
Lat/Long: 30-35-12.6900N 085-06-13.7100W
30-35.211500N 085-06.228500W
30.5868583,-85.1038083
(estimated)
Elevation: 214 ft. / 65 m (estimated)
Variation: 01W (1990)
From city: 2 miles E of ALTHA, FL
Time zone: UTC -6 (UTC -5 during Daylight Saving Time)
Zip code: 32421

Heliport Operations

Heliport use: Private use. Permission required prior to landing
Activation date: 10/1994
Control tower: no
ARTCC: JACKSONVILLE CENTER
FSS: GAINESVILLE FLIGHT SERVICE STATION
Attendance: UNATNDD
Wind indicator: yes
Segmented circle: no

Heliport Communications

WX AWOS-AV at F95 (6 nm S): 119.350 (850-674-1347)
WX ASOS at MAI (16 nm N): 133.525 (850-482-6082)

Nearby radio navigation aids

VOR radial/distance  VOR name  Freq  Var
MAIr175/12.0MARIANNA VORTAC114.0000E
SZWr271/37.7SEMINOLE VORTAC117.5002E

 
NDB name  Hdg/Dist  Freq  Var  ID
SOYYA162/18.232902WSMY ... -- -.--
WILLIS236/37.835904WLYZ .-.. -.-- --..
LYNNE070/38.427804WPFN .--. ..-. -.

Heliport Services

Runway Information

Helipad H1

Dimensions: 25 x 25 ft. / 8 x 8 m
Surface: concrete
Traffic pattern: leftleft

Heliport Ownership and Management from official FAA records

Ownership: Privately-owned
Owner: DAVID L TATUM
RT 2 BOX 104-A
ALTHA, FL 32421
Phone 904-762-8438
Manager: DAVID L TATUM
RT 2 BOX 104-A
ALTHA, FL 32421
Phone 904-762-8438

Heliport Operational Statistics

Aircraft based on the field: 1
Helicopters: 1
    

Additional Remarks

FOR CD CTC TYNDALL APCH AT 850-283-2900 OR 850-283-3353, WHEN APCH CLSD CTC JACKSONVILLE ARTCC AT 904-845-1592.

Instrument Procedures

There are no published instrument procedures at FD60.

Some nearby airports with instrument procedures:

KMAI - Marianna Municipal Airport (16 nm N)
17J - Donalsonville Municipal Airport (28 nm NE)
2J9 - Quincy Municipal Airport (28 nm E)
1J0 - Tri-County Airport (30 nm NW)
KBGE - Decatur County Industrial Air Park (33 nm NE)
 
Loc | Ops | Rwys | IFR | FBO | Links
Com | Nav | Svcs | Stats | Notes

Continental Services
AirBoss

 
Area around FD60 (Calhoun Sheriff's Heliport)
 
Road maps at: MapQuest Bing Google
 
Aerial photo
No photo
 
Sectional chart

 
Airport distance calculator
Flying to Calhoun Sheriff's Heliport? Find the distance to fly.

From to FD60

Sunrise and sunset
Times for 21-Jan-2020
 Local
(UTC-6)
 Zulu
(UTC)
Morning civil twilight06:1212:12
Sunrise06:3812:38
Sunset17:0623:06
Evening civil twilight17:3123:31

Current date and time
Zulu (UTC)  22-Jan-2020 02:39:04
Local (UTC-6)  21-Jan-2020 20:39:04
 
METAR
KMAI 
15nm N 
220153Z AUTO 35005KT 10SM CLR 02/M06 A3039 RMK AO2 SLP292 T00221056
K17J 
28nm NE 
220210Z AUTO 36004KT 10SM CLR 01/M05 A3040 RMK AO2 T00081048
K2J9 
28nm E 
220215Z AUTO 35004KT 10SM CLR M01/M04 A3039 RMK AO2
K1J0 
30nm NW 
220158Z AUTO 00000KT 10SM CLR 00/M03 A3042 RMK AO2 SLP286 T00001028
TAF
KECP 
38nm W 
211720Z 2118/2218 35010G15KT P6SM SKC FM220000 VRB04KT P6SM SKC
KPAM 
39nm SW 
212009Z 2120/2301 01010G15KT 9999 SKC QNH3032INS WND 35009KT AFT 2122 BECMG 2217/2218 04009KT 9999 BKN200 QNH3024INS TX08/2121Z TNM01/2212Z LAST NO AMDS AFT 2123 NEXT 2211
KTLH 
41nm E 
211720Z 2118/2218 36010G15KT P6SM SKC FM220000 02004KT P6SM SKC
KDHN 
47nm N 
211720Z 2118/2218 01010G15KT P6SM SKC FM220000 02004KT P6SM SKC
NOTAMs
Click for the latest NOTAMs
NOTAMs are issued by the DoD/FAA and will open in a separate window not controlled by AirNav.

 

 
 

Would you like to see your business listed on this page?

 If your business provides an interesting product or service to pilots, flight crews, aircraft, or users of the Calhoun Sheriff's Heliport, you should consider listing it here.  To start the listing process, click on the button below
 
Add a business
 

Other Pages about Calhoun Sheriff's Heliport

Update a link
 
Copyright © AirNav, LLC. All rights reserved. Privacy Policy  Contact